Time;durP1;ratioP1;P1;durP2;ratioP2;P2;SDS_P1;SDS_P2;PMS_P1;PMS_P2;Temp;Humidity;BMP_temperature;BMP_pressure;BME280_temperature;BME280_humidity;BME280_pressure;Samples;Min_cycle;Max_cycle;Signal;HPM_P1;HPM_P2
2021/04/21 00:01:41;;;;;;;43.20;33.03;;;10.50;76.70;;;;;;5062350;28;20115;-76
2021/04/21 00:04:08;;;;;;;41.97;33.47;;;10.40;76.70;;;;;;5066860;28;20033;-75
2021/04/21 00:06:36;;;;;;;41.50;33.53;;;10.40;76.70;;;;;;5066030;28;20024;-75
2021/04/21 00:09:05;;;;;;;46.23;35.37;;;10.40;76.80;;;;;;5068154;28;20060;-74
2021/04/21 00:11:32;;;;;;;46.87;33.90;;;10.30;77.00;;;;;;5033871;28;20060;-74
2021/04/21 00:13:58;;;;;;;46.70;34.83;;;10.20;77.00;;;;;;5065147;28;20107;-74
2021/04/21 00:16:24;;;;;;;45.30;34.47;;;10.20;77.30;;;;;;5037915;28;20175;-74
2021/04/21 00:18:51;;;;;;;44.80;34.10;;;10.10;77.50;;;;;;5058364;28;20093;-80
2021/04/21 00:21:17;;;;;;;45.83;33.93;;;10.00;77.60;;;;;;5067665;28;20486;-75
2021/04/21 00:23:44;;;;;;;44.50;34.87;;;10.00;77.80;;;;;;5069285;28;20032;-75
2021/04/21 00:26:15;;;;;;;43.30;34.40;;;10.00;77.90;;;;;;5057335;28;20434;-75
2021/04/21 00:28:42;;;;;;;49.27;33.73;;;9.90;78.10;;;;;;5069750;28;20043;-75
2021/04/21 00:31:10;;;;;;;47.77;35.47;;;10.00;78.10;;;;;;5071338;28;20472;-75
2021/04/21 00:33:38;;;;;;;47.40;36.10;;;10.00;78.00;;;;;;5053625;28;20040;-75
2021/04/21 00:36:06;;;;;;;48.10;36.40;;;9.90;78.10;;;;;;5062393;28;20123;-75
2021/04/21 00:38:35;;;;;;;45.20;36.03;;;9.90;78.20;;;;;;5073119;28;20021;-75
2021/04/21 00:41:16;;;;;;;47.17;36.43;;;9.90;78.30;;;;;;5067192;28;20112;-75
2021/04/21 00:44:11;;;;;;;50.63;37.73;;;9.90;78.50;;;;;;5071898;28;20032;-76
2021/04/21 00:46:44;;;;;;;49.63;37.27;;;9.90;78.60;;;;;;5072413;28;20561;-76
2021/04/21 00:49:15;;;;;;;;;;;10.00;78.60;;;;;;5066945;28;20166;-74
2021/04/21 00:51:49;;;;;;;48.57;36.07;;;10.00;78.50;;;;;;5068356;28;21825;-75
2021/04/21 00:54:36;;;;;;;47.47;36.33;;;10.10;78.10;;;;;;5071796;28;20288;-74
2021/04/21 00:57:16;;;;;;;48.10;36.53;;;10.10;78.00;;;;;;5069505;28;20366;-75
2021/04/21 01:00:13;;;;;;;46.97;35.50;;;10.10;78.00;;;;;;5072005;28;20044;-76
2021/04/21 01:02:48;;;;;;;47.77;36.27;;;10.10;78.10;;;;;;5056969;28;20390;-76
2021/04/21 01:05:17;;;;;;;47.73;35.60;;;10.10;78.10;;;;;;5039835;28;20041;-77
2021/04/21 01:07:46;;;;;;;46.40;35.47;;;10.10;77.90;;;;;;5070467;28;20032;-76
2021/04/21 01:10:14;;;;;;;49.20;36.70;;;10.10;77.80;;;;;;5070788;28;20028;-76
2021/04/21 01:12:40;;;;;;;50.23;38.90;;;10.10;78.00;;;;;;5063938;28;20471;-77
2021/04/21 01:15:09;;;;;;;51.87;37.63;;;10.10;78.20;;;;;;5069630;28;20024;-75
2021/04/21 01:17:38;;;;;;;51.13;37.23;;;10.10;78.50;;;;;;5067421;28;20028;-75
2021/04/21 01:20:08;;;;;;;50.03;38.00;;;10.10;78.50;;;;;;5071498;28;20021;-76
2021/04/21 01:22:42;;;;;;;51.33;38.13;;;10.00;78.50;;;;;;5067351;28;20029;-73
2021/04/21 01:25:08;;;;;;;53.73;39.37;;;9.90;78.70;;;;;;5070336;28;20086;-74
2021/04/21 01:27:54;;;;;;;52.07;39.67;;;9.90;78.80;;;;;;5068997;28;20428;-75
2021/04/21 01:30:21;;;;;;;50.90;38.77;;;10.00;79.10;;;;;;5054862;28;20938;-75
2021/04/21 01:32:54;;;;;;;52.27;38.80;;;10.00;79.00;;;;;;5069746;28;20031;-75
2021/04/21 01:35:21;;;;;;;52.20;38.30;;;10.10;78.70;;;;;;5067557;28;20078;-74
2021/04/21 01:37:54;;;;;;;50.60;37.80;;;10.00;78.80;;;;;;5071397;28;20367;-75
2021/04/21 01:40:27;;;;;;;50.83;37.92;;;10.10;78.80;;;;;;5065015;28;20486;-75
2021/04/21 01:42:55;;;;;;;48.47;37.78;;;10.10;78.90;;;;;;5057078;28;20040;-74
2021/04/21 01:45:26;;;;;;;51.60;39.13;;;10.10;78.80;;;;;;5057598;28;20024;-76
2021/04/21 01:47:56;;;;;;;53.60;40.57;;;10.10;78.80;;;;;;5070379;28;20168;-76
2021/04/21 01:50:21;;;;;;;54.10;41.47;;;9.90;78.80;;;;;;5070199;28;20482;-75
2021/04/21 01:52:54;;;;;;;48.37;39.03;;;9.80;79.20;;;;;;5070182;28;20024;-75
2021/04/21 01:55:19;;;;;;;53.10;40.30;;;9.80;79.40;;;;;;5071381;28;20028;-75
2021/04/21 01:57:52;;;;;;;55.97;41.17;;;9.70;79.50;;;;;;5068358;28;20059;-74
2021/04/21 02:00:34;;;;;;;55.92;41.08;;;9.60;79.90;;;;;;5069349;28;20110;-75
2021/04/21 02:03:33;;;;;;;58.80;41.22;;;9.60;80.00;;;;;;5041406;28;20199;-75
2021/04/21 02:06:23;;;;;;;56.40;40.87;;;9.50;80.10;;;;;;5007419;28;20395;-75
2021/04/21 02:09:26;;;;;;;58.20;42.33;;;9.40;80.10;;;;;;5057035;28;20028;-76
2021/04/21 02:12:26;;;;;;;55.05;40.67;;;9.40;80.40;;;;;;5067616;28;20474;-75
2021/04/21 02:15:02;;;;;;;55.67;40.33;;;9.40;80.60;;;;;;5069679;28;20036;-76
2021/04/21 02:17:49;;;;;;;56.53;41.60;;;9.40;80.60;;;;;;5068246;28;20180;-75
2021/04/21 02:20:22;;;;;;;57.63;40.57;;;9.40;80.50;;;;;;5069824;28;20024;-76
2021/04/21 02:22:57;;;;;;;56.80;41.58;;;9.40;80.60;;;;;;5058453;28;20032;-78
2021/04/21 02:25:38;;;;;;;57.30;40.50;;;9.50;80.50;;;;;;5031687;28;20036;-74
2021/04/21 02:28:16;;;;;;;54.50;39.73;;;9.50;80.40;;;;;;5047959;28;20474;-75
2021/04/21 02:31:05;;;;;;;54.33;39.60;;;9.60;80.20;;;;;;5070783;28;20075;-74
2021/04/21 02:33:43;;;;;;;52.20;39.27;;;9.60;80.30;;;;;;5028600;28;20036;-75
2021/04/21 02:36:15;;;;;;;51.97;38.27;;;9.60;80.20;;;;;;5071709;28;20031;-78
2021/04/21 02:39:04;;;;;;;55.00;39.00;;;9.60;80.20;;;;;;5067729;28;20036;-75
2021/04/21 02:41:43;;;;;;;55.90;39.37;;;9.60;80.20;;;;;;5054495;28;20517;-74
2021/04/21 02:44:11;;;;;;;51.30;37.43;;;9.60;80.10;;;;;;5031356;28;20498;-75
2021/04/21 02:46:52;;;;;;;54.47;40.03;;;9.70;80.30;;;;;;5056543;28;20028;-76
2021/04/21 02:49:30;;;;;;;52.97;38.80;;;9.80;80.00;;;;;;5068875;28;20028;-77
2021/04/21 02:52:05;;;;;;;53.80;39.37;;;9.80;80.00;;;;;;5067134;28;20043;-76
2021/04/21 02:54:43;;;;;;;54.07;39.97;;;9.80;79.80;;;;;;5067621;28;20120;-76
2021/04/21 02:57:34;;;;;;;52.13;38.60;;;9.80;79.80;;;;;;5068617;28;20343;-75
2021/04/21 03:00:08;;;;;;;55.50;40.33;;;9.90;79.80;;;;;;5057763;28;20049;-75
2021/04/21 03:02:49;;;;;;;53.53;38.87;;;9.90;79.70;;;;;;5060623;28;20025;-75
2021/04/21 03:05:30;;;;;;;55.10;39.80;;;9.90;79.70;;;;;;5052793;28;20028;-82
2021/04/21 03:08:04;;;;;;;52.87;40.10;;;9.90;79.60;;;;;;5065278;28;20034;-75
2021/04/21 03:10:38;;;;;;;58.47;39.47;;;9.90;79.50;;;;;;5048297;28;20044;-75
2021/04/21 03:13:16;;;;;;;52.70;39.93;;;10.00;79.40;;;;;;5048389;28;20033;-75
2021/04/21 03:15:52;;;;;;;55.43;40.03;;;10.00;79.50;;;;;;5056379;28;20154;-76
2021/04/21 03:18:19;;;;;;;51.53;38.40;;;10.00;79.60;;;;;;5069911;28;20033;-81
2021/04/21 03:21:01;;;;;;;53.73;39.90;;;10.00;79.60;;;;;;5049883;28;20508;-74
2021/04/21 03:23:28;;;;;;;55.90;38.80;;;10.00;79.50;;;;;;5053477;28;20036;-75
2021/04/21 03:25:57;;;;;;;49.80;37.10;;;10.00;79.40;;;;;;5068220;28;20033;-74
2021/04/21 03:28:26;;;;;;;54.03;37.37;;;10.10;79.30;;;;;;5066462;28;20029;-77
2021/04/21 03:30:58;;;;;;;46.23;35.67;;;10.10;79.20;;;;;;5068117;28;20024;-75
2021/04/21 03:33:41;;;;;;;48.73;36.20;;;10.10;79.20;;;;;;5054859;28;20071;-75
2021/04/21 03:36:07;;;;;;;49.13;35.58;;;10.20;79.10;;;;;;5050204;28;20078;-75
2021/04/21 03:38:33;;;;;;;51.90;37.30;;;10.20;79.00;;;;;;5053432;28;20033;-76
2021/04/21 03:41:00;;;;;;;51.13;37.00;;;10.20;78.90;;;;;;5067414;28;20033;-76
2021/04/21 03:43:27;;;;;;;46.53;35.17;;;10.10;78.90;;;;;;5053052;28;20453;-74
2021/04/21 03:45:53;;;;;;;46.93;34.37;;;10.20;78.90;;;;;;5043238;28;20060;-74
2021/04/21 03:48:20;;;;;;;46.00;35.17;;;10.20;78.90;;;;;;5030214;28;20083;-79
2021/04/21 03:50:50;;;;;;;47.37;34.40;;;10.20;78.90;;;;;;5047410;28;20575;-75
2021/04/21 03:53:18;;;;;;;48.73;35.73;;;10.10;79.00;;;;;;5068647;28;20126;-75
2021/04/21 03:55:45;;;;;;;50.60;35.77;;;10.10;78.80;;;;;;5068801;28;20044;-76
2021/04/21 03:58:16;;;;;;;48.93;35.00;;;10.10;78.90;;;;;;5067335;28;20044;-74
2021/04/21 04:00:42;;;;;;;51.87;35.90;;;10.00;78.70;;;;;;5068353;28;20369;-74
2021/04/21 04:03:27;;;;;;;51.17;36.90;;;10.10;78.80;;;;;;5045223;28;20043;-74
2021/04/21 04:06:11;;;;;;;48.63;35.57;;;10.10;78.70;;;;;;5051755;28;20021;-75
2021/04/21 04:09:00;;;;;;;51.17;36.00;;;10.10;78.80;;;;;;5067078;28;20039;-75
2021/04/21 04:11:37;;;;;;;52.47;35.43;;;10.10;78.70;;;;;;5070521;28;20031;-80
2021/04/21 04:14:21;;;;;;;47.53;34.90;;;10.10;78.60;;;;;;5071081;28;20024;-75
2021/04/21 04:16:52;;;;;;;48.33;34.33;;;10.10;78.60;;;;;;5032721;28;20018;-75
2021/04/21 04:19:18;;;;;;;50.33;35.20;;;10.10;78.60;;;;;;5037188;28;20025;-74
2021/04/21 04:21:51;;;;;;;48.60;36.10;;;10.00;78.70;;;;;;5067698;28;20044;-74
2021/04/21 04:24:21;;;;;;;49.40;34.95;;;10.10;78.60;;;;;;5067283;28;20029;-76
2021/04/21 04:26:48;;;;;;;50.00;35.20;;;10.10;78.60;;;;;;5067310;28;20025;-74
2021/04/21 04:29:13;;;;;;;45.03;34.63;;;10.10;78.60;;;;;;5067542;28;20522;-74
2021/04/21 04:31:40;;;;;;;49.30;34.37;;;10.00;78.70;;;;;;5069410;28;20120;-74
2021/04/21 04:34:07;;;;;;;43.43;32.40;;;10.00;78.70;;;;;;5073141;28;20036;-74
2021/04/21 04:36:35;;;;;;;46.67;33.73;;;10.00;78.60;;;;;;5065996;28;20051;-76
2021/04/21 04:39:04;;;;;;;48.30;34.10;;;10.00;78.60;;;;;;5073446;28;20024;-74
2021/04/21 04:41:30;;;;;;;48.17;34.37;;;10.00;78.60;;;;;;5067791;28;20029;-80
2021/04/21 04:43:57;;;;;;;48.13;34.63;;;10.10;78.70;;;;;;5055551;28;20036;-75
2021/04/21 04:46:28;;;;;;;48.13;34.33;;;10.00;78.50;;;;;;5060829;28;20504;-75
2021/04/21 04:49:10;;;;;;;49.47;34.37;;;10.00;78.50;;;;;;5070947;28;20047;-75
2021/04/21 04:51:45;;;;;;;47.43;33.90;;;10.10;78.60;;;;;;5053945;28;20040;-75
2021/04/21 04:54:13;;;;;;;46.90;34.43;;;10.10;78.70;;;;;;5066569;28;20032;-75
2021/04/21 04:56:43;;;;;;;46.27;32.97;;;10.10;78.70;;;;;;5067188;28;20031;-75
2021/04/21 04:59:09;;;;;;;46.57;34.00;;;10.10;78.60;;;;;;5070709;28;20044;-76
2021/04/21 05:01:55;;;;;;;45.80;32.93;;;10.10;78.50;;;;;;5049473;28;20140;-75
2021/04/21 05:04:25;;;;;;;46.13;32.67;;;10.20;78.60;;;;;;5052144;28;20072;-74
2021/04/21 05:06:56;;;;;;;47.57;33.17;;;10.20;78.50;;;;;;5051965;28;20612;-75
2021/04/21 05:09:27;;;;;;;48.50;33.10;;;10.20;78.20;;;;;;5052613;28;20101;-74
2021/04/21 05:11:57;;;;;;;47.80;33.93;;;10.30;78.20;;;;;;5061732;28;20047;-74
2021/04/21 05:14:23;;;;;;;44.97;32.03;;;10.30;78.00;;;;;;5069677;28;20035;-74
2021/04/21 05:16:55;;;;;;;46.63;31.30;;;10.30;77.90;;;;;;5063703;28;20037;-75
2021/04/21 05:19:39;;;;;;;46.97;32.87;;;10.40;77.90;;;;;;5057436;28;20039;-75
2021/04/21 05:22:17;;;;;;;42.73;31.50;;;10.40;77.50;;;;;;5069039;28;20047;-76
2021/04/21 05:24:54;;;;;;;47.13;31.93;;;10.50;77.50;;;;;;5060872;28;20088;-75
2021/04/21 05:27:26;;;;;;;43.67;31.03;;;10.50;77.40;;;;;;5054917;28;20127;-75
2021/04/21 05:30:17;;;;;;;42.93;31.00;;;10.70;77.20;;;;;;5071421;28;20509;-75
2021/04/21 05:33:19;;;;;;;44.80;30.17;;;10.90;76.50;;;;;;5069098;28;20029;-75
2021/04/21 05:36:09;;;;;;;51.30;32.57;;;11.10;76.00;;;;;;5066547;28;20060;-75
2021/04/21 05:39:02;;;;;;;47.10;31.40;;;11.40;75.60;;;;;;5070323;28;20539;-81
2021/04/21 05:41:49;;;;;;;43.47;32.17;;;11.90;74.00;;;;;;5070717;28;20028;-74
2021/04/21 05:44:54;;;;;;;40.50;30.63;;;12.60;72.10;;;;;;5032051;28;20037;-76
2021/04/21 05:47:58;;;;;;;43.17;31.97;;;13.00;70.60;;;;;;5050571;28;20611;-75
2021/04/21 05:51:20;;;;;;;41.75;30.98;;;13.60;69.10;;;;;;5060921;28;20025;-75
2021/04/21 05:54:04;;;;;;;45.07;31.43;;;14.10;67.30;;;;;;4969962;28;20381;-75
2021/04/21 05:56:36;;;;;;;42.37;30.83;;;14.20;66.30;;;;;;4973568;28;20468;-75
2021/04/21 05:59:56;;;;;;;46.30;32.07;;;14.20;66.20;;;;;;5035088;28;20041;-76
2021/04/21 06:02:25;;;;;;;41.60;32.67;;;13.90;66.50;;;;;;4972310;28;20034;-76
2021/04/21 06:05:13;;;;;;;41.58;30.45;;;13.90;67.00;;;;;;5053233;28;20036;-75
2021/04/21 06:07:40;;;;;;;45.65;30.63;;;14.40;66.60;;;;;;5069290;28;20463;-80
2021/04/21 06:10:25;;;;;;;38.75;29.08;;;14.90;64.90;;;;;;5067982;28;20041;-76
2021/04/21 06:13:01;;;;;;;43.47;27.85;;;15.60;63.90;;;;;;5064414;28;20452;-75
2021/04/21 06:15:31;;;;;;;45.10;27.95;;;16.40;62.10;;;;;;5050063;28;20045;-75
2021/04/21 06:17:59;;;;;;;39.67;26.98;;;17.20;59.30;;;;;;5060326;28;20482;-75
2021/04/21 06:20:42;;;;;;;34.58;25.85;;;17.70;56.90;;;;;;5070023;28;20494;-75
2021/04/21 06:23:12;;;;;;;35.35;26.48;;;18.20;54.80;;;;;;5068141;28;20048;-75
2021/04/21 06:25:41;;;;;;;29.83;24.40;;;18.20;53.80;;;;;;5045535;28;20143;-74
2021/04/21 06:28:20;;;;;;;26.83;21.58;;;18.50;52.50;;;;;;5049856;28;20115;-75
2021/04/21 06:30:49;;;;;;;26.75;21.25;;;19.00;51.50;;;;;;5070123;28;20089;-77
2021/04/21 06:33:16;;;;;;;27.23;21.60;;;19.50;50.10;;;;;;5067679;28;20482;-75
2021/04/21 06:35:43;;;;;;;24.27;20.83;;;20.00;49.10;;;;;;5064202;28;20025;-76
2021/04/21 06:38:10;;;;;;;23.55;20.13;;;20.50;47.20;;;;;;5048021;28;20033;-74
2021/04/21 06:40:38;;;;;;;21.30;18.65;;;20.90;46.50;;;;;;5049968;28;20116;-74
2021/04/21 06:43:04;;;;;;;25.77;19.50;;;21.40;45.80;;;;;;5069878;28;20208;-74
2021/04/21 06:45:34;;;;;;;26.23;21.38;;;21.80;45.30;;;;;;5061967;28;20079;-74
2021/04/21 06:48:03;;;;;;;24.25;21.38;;;22.20;43.30;;;;;;5062107;28;20278;-73
2021/04/21 06:50:30;;;;;;;20.67;18.42;;;22.60;41.80;;;;;;5069182;28;20123;-73
2021/04/21 06:53:01;;;;;;;23.30;18.67;;;22.80;41.30;;;;;;5056092;28;20078;-74
2021/04/21 06:55:28;;;;;;;20.15;16.92;;;23.10;40.20;;;;;;5054549;28;20095;-75
2021/04/21 06:57:53;;;;;;;20.25;16.70;;;23.20;40.40;;;;;;5059381;28;20056;-75
2021/04/21 07:00:25;;;;;;;18.88;16.63;;;23.40;39.70;;;;;;5065676;28;20076;-75
2021/04/21 07:02:53;;;;;;;18.80;16.80;;;23.60;38.30;;;;;;5047978;28;20450;-75
2021/04/21 07:05:42;;;;;;;19.60;17.17;;;23.70;38.10;;;;;;5041671;28;20035;-74
2021/04/21 07:08:10;;;;;;;20.63;17.42;;;23.70;39.40;;;;;;5048783;28;20037;-74
2021/04/21 07:10:45;;;;;;;19.48;16.90;;;23.80;38.80;;;;;;5067681;28;20071;-74
2021/04/21 07:13:19;;;;;;;19.00;14.88;;;23.80;38.90;;;;;;5044225;28;20039;-80
2021/04/21 07:15:46;;;;;;;16.23;14.60;;;23.80;37.00;;;;;;5032767;28;20025;-73
2021/04/21 07:18:18;;;;;;;16.42;14.77;;;23.70;37.50;;;;;;5067213;28;20028;-73
2021/04/21 07:20:44;;;;;;;20.05;15.48;;;23.80;36.20;;;;;;5062094;28;20029;-73
2021/04/21 07:23:11;;;;;;;18.10;15.13;;;23.50;37.30;;;;;;5062177;28;20029;-74
2021/04/21 07:25:46;;;;;;;17.15;15.20;;;23.70;37.70;;;;;;5050653;28;20151;-74
2021/04/21 07:28:13;;;;;;;15.45;13.82;;;23.90;36.70;;;;;;5050180;28;20016;-73
2021/04/21 07:30:39;;;;;;;18.23;14.52;;;24.10;36.70;;;;;;5068108;28;20098;-73
2021/04/21 07:33:05;;;;;;;18.63;15.70;;;24.50;37.40;;;;;;5049368;28;20121;-73
2021/04/21 07:35:32;;;;;;;19.23;16.33;;;24.80;36.70;;;;;;5070035;28;20509;-74
2021/04/21 07:37:59;;;;;;;29.70;19.25;;;25.00;36.00;;;;;;5065896;28;20366;-74
2021/04/21 07:40:35;;;;;;;33.90;20.55;;;25.00;36.40;;;;;;5066564;28;20111;-74
2021/04/21 07:43:04;;;;;;;31.42;18.92;;;25.00;36.60;;;;;;5054430;28;20108;-74
2021/04/21 07:45:53;;;;;;;31.33;17.90;;;25.10;36.40;;;;;;5072651;28;20029;-75
2021/04/21 07:48:34;;;;;;;26.63;17.63;;;25.30;35.50;;;;;;5066170;28;20043;-73
2021/04/21 07:51:21;;;;;;;18.83;15.85;;;25.20;35.40;;;;;;5058061;28;20033;-75
2021/04/21 07:53:47;;;;;;;24.30;15.60;;;24.80;35.10;;;;;;5074100;28;20017;-73
2021/04/21 07:56:13;;;;;;;21.05;15.43;;;24.30;36.20;;;;;;5067299;28;20029;-74
2021/04/21 07:58:38;;;;;;;20.27;15.23;;;23.70;37.60;;;;;;5067286;28;20520;-76
2021/04/21 08:01:04;;;;;;;19.75;15.65;;;23.10;37.90;;;;;;5065929;28;20049;-73
2021/04/21 08:03:30;;;;;;;21.02;14.55;;;22.50;38.50;;;;;;5054292;28;20477;-73
2021/04/21 08:05:55;;;;;;;24.60;15.43;;;22.30;39.20;;;;;;5056918;28;20394;-80
2021/04/21 08:08:35;;;;;;;19.65;15.27;;;21.90;39.20;;;;;;5071113;28;20115;-74
2021/04/21 08:11:03;;;;;;;19.48;15.02;;;21.60;39.80;;;;;;5070713;28;20108;-75
2021/04/21 08:13:43;;;;;;;20.17;14.95;;;21.40;40.30;;;;;;5069075;28;20035;-74
2021/04/21 08:16:25;;;;;;;18.00;15.48;;;21.20;40.20;;;;;;5058397;28;20029;-74
2021/04/21 08:18:54;;;;;;;24.10;15.35;;;21.00;40.50;;;;;;5054076;28;20035;-74
2021/04/21 08:21:42;;;;;;;21.25;15.90;;;20.80;41.40;;;;;;5071937;28;20016;-74
2021/04/21 08:24:15;;;;;;;20.80;16.55;;;20.50;41.30;;;;;;5064818;28;20172;-75
2021/04/21 08:26:45;;;;;;;18.63;16.02;;;20.20;42.40;;;;;;5066638;28;20059;-76
2021/04/21 08:29:13;;;;;;;20.52;16.77;;;20.10;42.70;;;;;;5070218;28;20028;-75
2021/04/21 08:31:43;;;;;;;22.35;16.63;;;20.00;43.00;;;;;;5056653;28;20024;-78
2021/04/21 08:34:08;;;;;;;21.88;18.25;;;19.90;43.80;;;;;;5060387;28;20025;-74
2021/04/21 08:36:34;;;;;;;24.13;16.88;;;20.00;43.70;;;;;;5064419;28;20036;-74
2021/04/21 08:39:00;;;;;;;22.38;17.92;;;19.90;44.20;;;;;;5062280;28;20490;-75
2021/04/21 08:41:27;;;;;;;23.80;18.35;;;19.90;44.20;;;;;;5072457;28;20381;-74
2021/04/21 08:43:55;;;;;;;22.90;17.50;;;19.70;44.50;;;;;;5066629;28;20067;-75
2021/04/21 08:46:21;;;;;;;22.23;17.17;;;19.50;44.90;;;;;;5071018;28;20127;-74
2021/04/21 08:48:47;;;;;;;21.40;17.15;;;19.40;44.90;;;;;;5069634;28;20477;-73
2021/04/21 08:51:18;;;;;;;21.88;16.23;;;19.40;45.20;;;;;;5072751;28;20052;-73
2021/04/21 08:53:51;;;;;;;22.80;17.30;;;19.60;44.50;;;;;;5071230;28;20036;-74
2021/04/21 08:56:19;;;;;;;21.85;17.30;;;19.70;44.50;;;;;;5072471;28;20028;-74
2021/04/21 08:58:47;;;;;;;23.05;16.38;;;20.00;44.30;;;;;;5066599;28;20028;-74
2021/04/21 09:01:14;;;;;;;19.73;16.45;;;20.30;44.10;;;;;;5072195;28;20053;-74
2021/04/21 09:03:44;;;;;;;21.55;16.10;;;20.60;43.10;;;;;;5069853;28;20029;-75
2021/04/21 09:06:10;;;;;;;20.55;15.30;;;21.00;43.10;;;;;;5052212;28;20028;-76
2021/04/21 09:08:38;;;;;;;20.67;17.23;;;21.40;42.60;;;;;;5073400;28;20029;-73
2021/04/21 09:11:04;;;;;;;20.35;17.63;;;21.70;42.10;;;;;;5071686;28;20488;-74
2021/04/21 09:13:30;;;;;;;24.02;17.83;;;21.80;41.20;;;;;;5053028;28;20048;-74
2021/04/21 09:15:57;;;;;;;18.13;16.05;;;21.80;41.40;;;;;;5070534;28;20064;-74
2021/04/21 09:18:31;;;;;;;19.40;17.42;;;21.80;41.60;;;;;;5070540;28;20025;-73
2021/04/21 09:20:59;;;;;;;19.60;16.55;;;21.70;41.60;;;;;;5069243;28;20442;-76
2021/04/21 09:23:33;;;;;;;19.58;16.88;;;21.70;41.60;;;;;;5071707;28;20082;-74
2021/04/21 09:25:59;;;;;;;19.73;16.73;;;21.50;41.20;;;;;;5054920;28;20048;-73
2021/04/21 09:28:25;;;;;;;20.17;16.83;;;21.40;41.60;;;;;;5032548;28;20033;-74
2021/04/21 09:30:58;;;;;;;20.75;16.85;;;21.40;41.90;;;;;;5072644;28;20071;-73
2021/04/21 09:33:29;;;;;;;19.48;17.02;;;21.40;41.70;;;;;;5070453;28;20026;-74
2021/04/21 09:35:55;;;;;;;19.42;17.40;;;21.50;41.50;;;;;;5070454;28;20033;-74
2021/04/21 09:38:24;;;;;;;19.27;16.90;;;21.50;41.10;;;;;;5071511;28;20492;-74
2021/04/21 09:40:54;;;;;;;15.38;13.27;;;21.50;40.90;;;;;;5070759;28;20032;-75
2021/04/21 09:43:31;;;;;;;17.85;15.02;;;21.70;41.20;;;;;;5065038;28;20024;-75
2021/04/21 09:46:18;;;;;;;16.88;14.63;;;22.30;39.90;;;;;;5068589;28;20036;-76
2021/04/21 09:48:46;;;;;;;16.38;12.35;;;22.90;38.80;;;;;;5070624;28;20040;-74
2021/04/21 09:51:16;;;;;;;13.23;11.25;;;23.40;36.60;;;;;;5069883;28;20111;-80
2021/04/21 09:53:43;;;;;;;13.10;11.70;;;23.50;35.60;;;;;;5071766;28;20104;-75
2021/04/21 09:56:25;;;;;;;14.82;11.90;;;23.70;35.50;;;;;;5046895;28;20044;-73
2021/04/21 09:58:55;;;;;;;16.25;13.35;;;23.90;35.70;;;;;;5031472;28;20132;-74
2021/04/21 10:01:32;;;;;;;16.88;13.57;;;24.20;35.10;;;;;;5030957;28;20060;-75
2021/04/21 10:04:04;;;;;;;17.45;13.32;;;24.10;34.90;;;;;;5045073;28;20073;-75
2021/04/21 10:06:30;;;;;;;14.03;11.67;;;24.10;35.20;;;;;;5067804;28;20038;-74
2021/04/21 10:08:56;;;;;;;15.82;13.55;;;24.40;35.60;;;;;;5058497;28;20184;-74
2021/04/21 10:11:22;;;;;;;14.50;12.60;;;24.70;34.40;;;;;;5031111;28;20479;-74
2021/04/21 10:13:51;;;;;;;14.50;12.40;;;24.80;34.70;;;;;;5041909;28;20474;-75
2021/04/21 10:16:17;;;;;;;17.83;14.23;;;25.10;34.40;;;;;;5071043;28;20059;-79
2021/04/21 10:18:44;;;;;;;18.95;14.70;;;25.20;33.70;;;;;;5069998;28;20474;-75
2021/04/21 10:21:13;;;;;;;16.83;13.05;;;25.30;33.70;;;;;;5069432;28;20044;-77
2021/04/21 10:23:38;;;;;;;15.60;13.52;;;25.30;33.60;;;;;;5070555;28;20025;-75
2021/04/21 10:26:09;;;;;;;15.27;13.50;;;25.60;33.30;;;;;;5064847;28;20040;-75
2021/04/21 10:28:37;;;;;;;16.65;14.55;;;25.50;32.60;;;;;;5067559;28;20543;-74
2021/04/21 10:31:16;;;;;;;15.93;13.63;;;25.50;32.50;;;;;;5069963;28;20111;-76
2021/04/21 10:33:43;;;;;;;17.10;14.10;;;25.10;33.30;;;;;;5068436;28;20111;-75
2021/04/21 10:36:10;;;;;;;17.60;13.98;;;25.20;33.60;;;;;;5065835;28;20066;-75
2021/04/21 10:38:40;;;;;;;15.23;13.48;;;25.20;33.10;;;;;;5070565;28;20024;-75
2021/04/21 10:41:35;;;;;;;16.20;12.90;;;25.10;33.20;;;;;;5070830;28;20039;-74
2021/04/21 10:44:08;;;;;;;14.73;13.20;;;25.30;33.80;;;;;;5069912;28;20028;-76
2021/04/21 10:47:03;;;;;;;15.55;13.60;;;25.30;33.60;;;;;;5067311;28;20040;-76
2021/04/21 10:49:48;;;;;;;15.48;13.88;;;25.50;33.70;;;;;;5070513;28;20029;-75
2021/04/21 10:52:29;;;;;;;18.58;15.05;;;25.80;33.80;;;;;;5067809;28;20033;-76
2021/04/21 10:55:03;;;;;;;18.92;16.75;;;25.50;32.50;;;;;;5070816;28;20032;-74
2021/04/21 10:57:43;;;;;;;15.35;13.57;;;25.20;32.90;;;;;;5050346;28;20064;-74
2021/04/21 11:00:28;;;;;;;18.27;16.38;;;25.20;33.80;;;;;;5057870;28;20059;-74
2021/04/21 11:03:16;;;;;;;17.20;15.35;;;25.20;33.20;;;;;;5057499;28;20040;-74
2021/04/21 11:05:44;;;;;;;16.73;14.93;;;25.00;33.70;;;;;;5064635;28;20044;-76
2021/04/21 11:08:23;;;;;;;18.65;16.35;;;24.90;34.10;;;;;;5069174;28;20028;-74
2021/04/21 11:10:53;;;;;;;17.40;14.90;;;24.90;34.50;;;;;;5061967;28;20095;-78
2021/04/21 11:13:34;;;;;;;17.90;15.23;;;24.70;35.10;;;;;;5060193;28;20073;-75
2021/04/21 11:16:05;;;;;;;16.05;14.55;;;24.70;35.60;;;;;;5070647;28;20025;-75
2021/04/21 11:18:35;;;;;;;19.83;15.73;;;25.00;35.60;;;;;;5053391;28;20041;-75
2021/04/21 11:21:12;;;;;;;15.57;13.55;;;25.00;34.20;;;;;;5050070;28;20048;-77
2021/04/21 11:23:59;;;;;;;17.92;15.90;;;25.00;34.30;;;;;;5066611;28;20028;-75
2021/04/21 11:29:10;;;;;;;15.68;13.68;;;24.80;34.20;;;;;;5065818;28;20101;-75
2021/04/21 11:31:41;;;;;;;14.68;13.18;;;24.70;33.70;;;;;;5067759;28;20032;-78
2021/04/21 11:34:13;;;;;;;16.70;12.77;;;24.80;33.90;;;;;;5032594;28;20041;-75
2021/04/21 11:36:57;;;;;;;13.90;12.45;;;24.90;33.60;;;;;;5044302;28;20291;-75
2021/04/21 11:39:41;;;;;;;13.23;11.82;;;25.00;33.70;;;;;;5054605;28;20040;-75
2021/04/21 11:42:31;;;;;;;13.82;12.38;;;25.10;33.90;;;;;;5046345;28;20032;-75
2021/04/21 11:45:02;;;;;;;13.55;11.05;;;25.10;34.20;;;;;;5058790;28;20029;-76
2021/04/21 11:47:38;;;;;;;18.20;14.32;;;24.90;34.60;;;;;;5052253;28;20064;-81
2021/04/21 11:50:10;;;;;;;16.20;13.27;;;24.70;34.10;;;;;;5060666;28;20036;-77
2021/04/21 11:52:47;;;;;;;14.20;12.70;;;24.30;34.50;;;;;;5057652;28;20023;-75
2021/04/21 11:55:19;;;;;;;14.20;12.73;;;23.90;35.00;;;;;;5062853;28;20025;-74
2021/04/21 11:57:59;;;;;;;14.93;13.35;;;23.60;35.70;;;;;;5036768;28;20078;-73
2021/04/21 12:00:35;;;;;;;13.65;12.10;;;23.40;36.10;;;;;;5028499;28;20092;-75
2021/04/21 12:03:02;;;;;;;13.98;12.15;;;23.30;36.20;;;;;;5037174;28;20044;-76
2021/04/21 12:05:33;;;;;;;14.45;11.90;;;23.10;36.30;;;;;;5068571;28;20101;-75
2021/04/21 12:08:02;;;;;;;15.80;13.10;;;23.10;36.50;;;;;;5065995;28;20604;-75
2021/04/21 12:10:32;;;;;;;14.63;13.10;;;23.20;36.90;;;;;;5067327;28;20067;-75
2021/04/21 12:13:19;;;;;;;15.48;11.90;;;23.30;36.50;;;;;;5064881;28;20035;-75
2021/04/21 12:15:48;;;;;;;15.02;13.02;;;23.30;36.40;;;;;;5068972;28;20017;-74
2021/04/21 12:18:51;;;;;;;13.73;12.05;;;23.30;36.00;;;;;;5066869;28;20056;-75
2021/04/21 12:21:19;;;;;;;14.02;12.73;;;23.40;35.80;;;;;;5052261;28;20029;-74
2021/04/21 12:24:03;;;;;;;13.98;12.50;;;23.50;35.00;;;;;;5061379;28;20039;-76
2021/04/21 12:26:33;;;;;;;15.05;13.45;;;23.70;34.60;;;;;;5070465;28;20064;-74
2021/04/21 12:29:02;;;;;;;15.15;11.10;;;23.40;33.60;;;;;;5070430;28;20028;-76
2021/04/21 12:31:30;;;;;;;12.80;11.45;;;23.20;34.50;;;;;;5071326;28;20028;-74
2021/04/21 12:33:58;;;;;;;15.00;13.40;;;23.30;34.10;;;;;;5069683;28;20232;-74
2021/04/21 12:36:26;;;;;;;13.65;11.70;;;23.50;32.80;;;;;;5073366;28;20028;-74
2021/04/21 12:39:00;;;;;;;12.57;10.85;;;23.60;33.80;;;;;;5071152;28;20388;-75
2021/04/21 12:41:26;;;;;;;13.52;12.02;;;23.80;34.40;;;;;;5066844;28;20062;-74
2021/04/21 12:43:52;;;;;;;13.70;12.30;;;24.00;33.60;;;;;;5070658;28;20029;-75
2021/04/21 12:46:24;;;;;;;12.57;11.25;;;24.20;33.70;;;;;;5053008;28;20115;-73
2021/04/21 12:48:54;;;;;;;12.85;11.55;;;24.20;33.60;;;;;;5070661;28;20482;-74
2021/04/21 12:51:31;;;;;;;14.30;12.38;;;24.00;33.40;;;;;;5068263;28;20028;-75
2021/04/21 12:53:59;;;;;;;13.10;11.65;;;23.90;33.60;;;;;;5068434;28;20201;-79
2021/04/21 12:56:38;;;;;;;12.35;11.02;;;23.80;33.90;;;;;;5071864;28;20094;-74
2021/04/21 12:59:17;;;;;;;13.98;12.35;;;23.60;34.00;;;;;;5068928;28;20025;-76
2021/04/21 13:01:45;;;;;;;16.42;12.27;;;23.60;33.90;;;;;;5071146;28;20057;-76
2021/04/21 13:04:17;;;;;;;14.70;11.10;;;23.60;33.60;;;;;;5068078;28;20032;-74